createdAt,value
2018-02-09T00:00:29.151Z,-1.70
2018-02-09T00:02:56.786Z,-1.70
2018-02-09T00:05:24.299Z,-1.70
2018-02-09T00:07:52.011Z,-1.70
2018-02-09T00:10:19.526Z,-1.70
2018-02-09T00:12:47.227Z,-1.70
2018-02-09T00:15:15.019Z,-1.70
2018-02-09T00:17:42.775Z,-1.70
2018-02-09T00:20:10.558Z,-1.70
2018-02-09T00:22:51.754Z,-1.70
2018-02-09T00:25:19.263Z,-1.70
2018-02-09T00:27:47.045Z,-1.70
2018-02-09T00:30:14.564Z,-1.70
2018-02-09T00:32:42.087Z,-1.80
2018-02-09T00:35:09.602Z,-1.90
2018-02-09T00:37:37.139Z,-1.90
2018-02-09T00:40:04.945Z,-1.90
2018-02-09T00:42:32.454Z,-1.80
2018-02-09T00:45:00.336Z,-1.90
2018-02-09T00:47:27.919Z,-1.90
2018-02-09T00:49:55.443Z,-1.90
2018-02-09T00:52:23.138Z,-1.90
2018-02-09T00:54:50.911Z,-1.90
2018-02-09T00:57:18.671Z,-1.90
2018-02-09T00:59:46.196Z,-2.00
2018-02-09T01:02:13.708Z,-1.90
2018-02-09T01:04:41.347Z,-2.00
2018-02-09T01:07:09.111Z,-2.00
2018-02-09T01:09:36.867Z,-2.00
2018-02-09T01:12:04.608Z,-2.00
2018-02-09T01:14:32.403Z,-2.00
2018-02-09T01:17:00.163Z,-2.00
2018-02-09T01:19:27.690Z,-2.10
2018-02-09T01:21:55.387Z,-2.10
2018-02-09T01:24:23.149Z,-2.10
2018-02-09T01:26:50.783Z,-2.10
2018-02-09T01:29:18.364Z,-2.10
2018-02-09T01:31:45.881Z,-2.10
2018-02-09T01:34:13.411Z,-2.10
2018-02-09T01:36:40.927Z,-2.10
2018-02-09T01:39:08.472Z,-2.20
2018-02-09T01:41:36.262Z,-2.20
2018-02-09T01:44:04.025Z,-2.20
2018-02-09T01:46:31.535Z,-2.10
2018-02-09T01:48:59.203Z,-2.10
2018-02-09T01:51:27.007Z,-2.10
2018-02-09T01:53:54.527Z,-2.10
2018-02-09T01:56:22.203Z,-2.10
2018-02-09T01:58:49.996Z,-2.10
2018-02-09T02:01:17.509Z,-2.10
2018-02-09T02:03:45.181Z,-2.10
2018-02-09T02:06:12.970Z,-2.10
2018-02-09T02:08:40.751Z,-2.10
2018-02-09T02:11:08.682Z,-2.10
2018-02-09T02:13:36.205Z,-2.20
2018-02-09T02:16:04.026Z,-2.20
2018-02-09T02:18:31.538Z,-2.20
2018-02-09T02:20:59.054Z,-2.20
2018-02-09T02:23:26.625Z,-2.20
2018-02-09T02:25:54.166Z,-2.20
2018-02-09T02:28:21.684Z,-2.20
2018-02-09T02:30:49.405Z,-2.20
2018-02-09T02:33:17.155Z,-2.20
2018-02-09T02:35:44.912Z,-2.30
2018-02-09T02:38:12.422Z,-2.40
2018-02-09T02:40:40.139Z,-2.30
2018-02-09T02:43:08.382Z,-2.30
2018-02-09T02:45:35.895Z,-2.30
2018-02-09T02:48:04.011Z,-2.40
2018-02-09T02:50:31.521Z,-2.30
2018-02-09T02:52:59.877Z,-2.40
2018-02-09T02:55:27.639Z,-2.40
2018-02-09T02:57:55.167Z,-2.40
2018-02-09T03:00:23.334Z,-2.40
2018-02-09T03:02:50.844Z,-2.40
2018-02-09T03:05:18.395Z,-2.50
2018-02-09T03:07:45.932Z,-2.70
2018-02-09T03:10:13.598Z,-2.70
2018-02-09T03:12:41.362Z,-2.50
2018-02-09T03:15:08.879Z,-2.50
2018-02-09T03:17:36.396Z,-2.50
2018-02-09T03:20:04.042Z,-2.50
2018-02-09T03:22:31.562Z,-2.50
2018-02-09T03:24:59.259Z,-2.50
2018-02-09T03:27:26.782Z,-2.70
2018-02-09T03:29:54.502Z,-2.60
2018-02-09T03:32:22.212Z,-2.50
2018-02-09T03:34:49.723Z,-2.60
2018-02-09T03:37:17.247Z,-2.60
2018-02-09T03:39:44.760Z,-2.50
2018-02-09T03:42:13.042Z,-2.60
2018-02-09T03:44:40.755Z,-2.60
2018-02-09T03:47:08.271Z,-2.60
2018-02-09T03:49:35.968Z,-2.60
2018-02-09T03:52:03.739Z,-2.60
2018-02-09T03:54:31.275Z,-2.70
2018-02-09T03:56:59.503Z,-2.70
2018-02-09T03:59:27.028Z,-2.70
2018-02-09T04:01:54.977Z,-2.60
2018-02-09T04:04:22.535Z,-2.60
2018-02-09T04:06:50.059Z,-2.60
2018-02-09T04:09:17.619Z,-2.60
2018-02-09T04:11:45.227Z,-2.60
2018-02-09T04:14:12.755Z,-2.70
2018-02-09T04:16:40.432Z,-2.60
2018-02-09T04:19:08.219Z,-2.60
2018-02-09T04:21:35.736Z,-2.60
2018-02-09T04:24:03.255Z,-2.60
2018-02-09T04:26:30.904Z,-2.80
2018-02-09T04:28:58.424Z,-2.80
2018-02-09T04:31:26.119Z,-2.70
2018-02-09T04:33:53.647Z,-2.80
2018-02-09T04:36:21.291Z,-2.80
2018-02-09T04:38:48.827Z,-2.80
2018-02-09T04:41:16.550Z,-2.80
2018-02-09T04:43:44.067Z,-2.70
2018-02-09T04:46:11.601Z,-2.70
2018-02-09T04:48:39.879Z,-2.70
2018-02-09T04:51:07.613Z,-2.70
2018-02-09T04:53:35.371Z,-2.70
2018-02-09T04:56:02.909Z,-2.70
2018-02-09T04:58:30.587Z,-2.80
2018-02-09T05:00:58.098Z,-2.70
2018-02-09T05:03:25.602Z,-2.70
2018-02-09T05:05:53.239Z,-2.70
2018-02-09T05:08:20.798Z,-2.60
2018-02-09T05:10:48.458Z,-2.60
2018-02-09T05:13:15.967Z,-2.60
2018-02-09T05:15:43.546Z,-2.70
2018-02-09T05:18:11.823Z,-2.70
2018-02-09T05:20:39.348Z,-2.70
2018-02-09T05:23:06.970Z,-2.70
2018-02-09T05:25:34.761Z,-2.70
2018-02-09T05:28:02.535Z,-2.80
2018-02-09T05:30:30.048Z,-2.80
2018-02-09T05:32:57.742Z,-2.70
2018-02-09T05:35:25.258Z,-2.70
2018-02-09T05:37:52.936Z,-2.60
2018-02-09T05:40:20.455Z,-2.60
2018-02-09T05:42:48.183Z,-2.60
2018-02-09T05:45:15.711Z,-2.70
2018-02-09T05:47:43.235Z,-2.70
2018-02-09T05:50:11.538Z,-2.80
2018-02-09T05:52:39.595Z,-2.80
2018-02-09T05:55:07.131Z,-2.70
2018-02-09T05:57:34.746Z,-2.80
2018-02-09T06:00:02.527Z,-2.90
2018-02-09T06:02:30.310Z,-2.80
2018-02-09T06:04:58.071Z,-2.70
2018-02-09T06:07:25.591Z,-2.70
2018-02-09T06:09:53.274Z,-2.70
2018-02-09T06:12:20.795Z,-2.80
2018-02-09T06:14:48.480Z,-2.80
2018-02-09T06:17:16.259Z,-2.90
2018-02-09T06:19:43.779Z,-2.90
2018-02-09T06:22:11.490Z,-2.90
2018-02-09T06:24:38.999Z,-2.90
2018-02-09T06:27:06.676Z,-2.90
2018-02-09T06:29:34.474Z,-3.00
2018-02-09T06:32:02.004Z,-3.00
2018-02-09T06:34:29.520Z,-3.00
2018-02-09T06:36:58.203Z,-2.90
2018-02-09T06:39:26.496Z,-2.90
2018-02-09T06:41:54.023Z,-2.90
2018-02-09T06:44:21.767Z,-3.00
2018-02-09T06:46:49.395Z,-2.90
2018-02-09T06:49:17.188Z,-2.50
2018-02-09T06:51:44.714Z,-2.10
2018-02-09T06:54:12.238Z,-2.20
2018-02-09T06:56:40.623Z,-1.60
2018-02-09T06:59:08.372Z,-1.60
2018-02-09T07:01:35.890Z,-1.70
2018-02-09T07:04:03.463Z,-1.70
2018-02-09T07:06:30.979Z,-1.90
2018-02-09T07:08:58.899Z,-1.90
2018-02-09T07:11:26.413Z,-1.90
2018-02-09T07:13:54.227Z,-2.10
2018-02-09T07:16:23.671Z,-2.50
2018-02-09T07:18:51.711Z,-2.50
2018-02-09T07:21:19.994Z,-2.80
2018-02-09T07:23:47.690Z,-2.80
2018-02-09T07:26:15.212Z,-2.70
2018-02-09T07:28:43.893Z,-2.80
2018-02-09T07:31:11.611Z,-2.70
2018-02-09T07:33:39.904Z,-2.70
2018-02-09T07:36:07.431Z,-2.70
2018-02-09T07:38:34.992Z,-2.60
2018-02-09T07:41:02.487Z,-2.70
2018-02-09T07:43:30.145Z,-2.80
2018-02-09T07:45:57.662Z,-2.80
2018-02-09T07:48:25.180Z,-2.40
2018-02-09T07:50:53.463Z,-2.20
2018-02-09T07:53:21.205Z,-2.20
2018-02-09T07:55:48.974Z,-2.30
2018-02-09T07:58:16.694Z,-2.30
2018-02-09T08:00:44.475Z,-2.40
2018-02-09T08:03:11.998Z,-2.50
2018-02-09T08:05:39.502Z,-2.50
2018-02-09T08:08:07.124Z,-2.50
2018-02-09T08:10:34.640Z,-2.50
2018-02-09T08:13:02.918Z,-2.10
2018-02-09T08:15:30.463Z,-2.10
2018-02-09T08:17:57.984Z,-1.90
2018-02-09T08:20:25.488Z,-1.90
2018-02-09T08:22:52.999Z,-2.10
2018-02-09T08:25:20.591Z,-2.10
2018-02-09T08:27:48.119Z,-2.00
2018-02-09T08:30:15.660Z,-2.00
2018-02-09T08:32:43.176Z,-2.00
2018-02-09T08:35:10.716Z,-1.80
2018-02-09T08:37:38.475Z,-1.90
2018-02-09T08:40:06.208Z,-1.90
2018-02-09T08:42:33.950Z,-1.90
2018-02-09T08:45:01.463Z,-1.80
2018-02-09T08:47:29.099Z,-1.80
2018-02-09T08:49:56.619Z,-1.80
2018-02-09T08:52:24.457Z,-1.80
2018-02-09T08:54:52.194Z,-1.80
2018-02-09T08:57:19.707Z,-1.60
2018-02-09T08:59:47.432Z,-1.60
2018-02-09T09:02:14.971Z,-1.60
2018-02-09T09:04:42.752Z,-1.50
2018-02-09T09:07:10.383Z,-1.40
2018-02-09T09:09:37.911Z,-1.40
2018-02-09T09:12:05.427Z,-1.40
2018-02-09T09:14:32.956Z,-1.20
2018-02-09T09:17:00.482Z,-1.30
2018-02-09T09:19:28.304Z,-1.30
2018-02-09T09:21:55.817Z,-1.50
2018-02-09T09:24:24.379Z,-1.50
2018-02-09T09:26:51.883Z,-1.50
2018-02-09T09:29:19.404Z,-1.30
2018-02-09T09:31:47.135Z,-1.20
2018-02-09T09:34:14.656Z,-1.10
2018-02-09T09:36:42.312Z,-1.10
2018-02-09T09:39:09.829Z,-1.20
2018-02-09T09:41:37.957Z,-1.20
2018-02-09T09:44:05.480Z,-1.10
2018-02-09T09:46:33.092Z,-1.10
2018-02-09T09:49:00.855Z,-1.00
2018-02-09T09:51:28.591Z,-1.00
2018-02-09T09:53:56.103Z,-1.00
2018-02-09T09:56:23.677Z,-0.90
2018-02-09T09:58:52.220Z,-1.00
2018-02-09T10:01:36.275Z,-1.00
2018-02-09T10:04:03.802Z,-0.90
2018-02-09T10:06:31.437Z,-0.80
2018-02-09T10:08:58.957Z,-0.70
2018-02-09T10:11:26.735Z,-0.80
2018-02-09T10:13:54.451Z,-0.80
2018-02-09T10:16:21.999Z,-0.60
2018-02-09T10:18:49.521Z,-0.60
2018-02-09T10:21:17.800Z,-0.60
2018-02-09T10:23:46.255Z,-0.60
2018-02-09T10:26:13.911Z,-0.50
2018-02-09T10:28:41.435Z,-0.40
2018-02-09T10:31:08.943Z,-0.30
2018-02-09T10:33:36.556Z,-0.20
2018-02-09T10:36:04.083Z,-0.20
2018-02-09T10:38:31.767Z,-0.20
2018-02-09T10:40:59.568Z,-0.20
2018-02-09T10:43:27.317Z,-0.10
2018-02-09T10:45:54.834Z,-0.10
2018-02-09T10:48:22.545Z,0.00
2018-02-09T10:50:50.217Z,0.00
2018-02-09T10:53:17.738Z,0.10
2018-02-09T10:55:45.243Z,0.10
2018-02-09T10:58:12.983Z,0.20
2018-02-09T11:00:46.309Z,0.10
2018-02-09T11:03:13.823Z,0.20
2018-02-09T11:05:41.330Z,0.30
2018-02-09T11:08:09.607Z,0.50
2018-02-09T11:10:42.922Z,0.50
2018-02-09T11:13:16.535Z,0.60
2018-02-09T11:15:44.218Z,0.70
2018-02-09T11:18:11.967Z,0.80
2018-02-09T11:20:39.469Z,0.60
2018-02-09T11:23:06.979Z,0.70
2018-02-09T11:25:34.626Z,0.70
2018-02-09T11:28:02.124Z,0.60
2018-02-09T11:30:29.878Z,0.70
2018-02-09T11:32:57.441Z,0.70
2018-02-09T11:35:25.095Z,0.80
2018-02-09T11:37:52.818Z,0.90
2018-02-09T11:40:20.327Z,0.90
2018-02-09T11:42:47.835Z,1.00
2018-02-09T11:45:15.543Z,1.10
2018-02-09T11:47:43.054Z,1.00
2018-02-09T11:50:10.585Z,1.00
2018-02-09T11:52:38.095Z,1.00
2018-02-09T11:55:05.603Z,1.00
2018-02-09T11:57:33.107Z,1.00
2018-02-09T12:00:00.636Z,1.00
2018-02-09T12:02:28.363Z,1.10
2018-02-09T12:04:55.887Z,1.20
2018-02-09T12:07:23.592Z,1.30
2018-02-09T12:09:52.661Z,1.30
2018-02-09T12:12:20.332Z,1.30
2018-02-09T12:14:47.851Z,1.40
2018-02-09T12:17:15.365Z,1.30
2018-02-09T12:19:42.998Z,1.30
2018-02-09T12:22:10.503Z,1.40
2018-02-09T12:24:38.204Z,1.50
2018-02-09T12:27:05.722Z,1.50
2018-02-09T12:29:33.232Z,1.50
2018-02-09T12:32:00.750Z,1.60
2018-02-09T12:34:28.318Z,1.60
2018-02-09T12:36:56.126Z,1.60
2018-02-09T12:39:23.636Z,1.60
2018-02-09T12:41:51.363Z,1.60
2018-02-09T12:44:18.891Z,1.70
2018-02-09T12:46:46.411Z,1.70
2018-02-09T12:49:13.920Z,1.60
2018-02-09T12:51:41.463Z,1.60
2018-02-09T12:54:08.970Z,1.60
2018-02-09T12:56:36.695Z,1.70
2018-02-09T12:59:04.966Z,1.60
2018-02-09T13:01:32.495Z,1.70
2018-02-09T13:04:00.117Z,1.80
2018-02-09T13:06:27.619Z,1.80
2018-02-09T13:08:55.344Z,1.80
2018-02-09T13:11:23.900Z,1.80
2018-02-09T13:13:51.419Z,1.80
2018-02-09T13:16:19.080Z,1.80
2018-02-09T13:18:47.277Z,1.90
2018-02-09T13:21:15.120Z,1.80
2018-02-09T13:23:54.548Z,1.90
2018-02-09T13:26:22.111Z,1.80
2018-02-09T13:28:57.495Z,1.80
2018-02-09T13:31:25.049Z,1.90
2018-02-09T13:33:52.560Z,1.90
2018-02-09T13:36:26.106Z,1.90
2018-02-09T13:38:53.871Z,2.00
2018-02-09T13:41:21.638Z,2.10
2018-02-09T13:43:49.392Z,2.00
2018-02-09T13:46:17.028Z,2.10
2018-02-09T13:48:44.659Z,2.00
2018-02-09T13:51:12.363Z,1.90
2018-02-09T13:53:39.908Z,1.90
2018-02-09T13:56:07.397Z,1.90
2018-02-09T13:58:34.955Z,2.00
2018-02-09T14:01:03.663Z,2.00
2018-02-09T14:03:31.170Z,2.10
2018-02-09T14:05:58.679Z,2.10
2018-02-09T14:08:26.199Z,2.00
2018-02-09T14:10:53.720Z,2.00
2018-02-09T14:13:22.400Z,2.10
2018-02-09T14:15:50.690Z,2.20
2018-02-09T14:18:18.184Z,2.20
2018-02-09T14:20:47.434Z,2.30
2018-02-09T14:23:14.975Z,2.20
2018-02-09T14:25:43.516Z,2.10
2018-02-09T14:28:11.136Z,2.10
2018-02-09T14:30:39.722Z,2.30
2018-02-09T14:33:07.348Z,2.20
2018-02-09T14:35:34.858Z,2.20
2018-02-09T14:38:02.651Z,2.20
2018-02-09T14:40:30.166Z,2.20
2018-02-09T14:42:57.814Z,2.10
2018-02-09T14:45:25.319Z,2.10
2018-02-09T14:47:52.838Z,2.10
2018-02-09T14:50:20.601Z,2.10
2018-02-09T14:52:48.110Z,2.00
2018-02-09T14:55:15.763Z,2.10
2018-02-09T14:57:43.532Z,2.00
2018-02-09T15:00:11.286Z,2.00
2018-02-09T15:02:39.603Z,1.90
2018-02-09T15:05:07.108Z,1.90
2018-02-09T15:07:34.645Z,2.00
2018-02-09T15:10:02.162Z,2.00
2018-02-09T15:12:29.804Z,2.00
2018-02-09T15:14:57.349Z,2.00
2018-02-09T15:17:25.029Z,2.00
2018-02-09T15:19:52.539Z,1.90
2018-02-09T15:22:20.051Z,1.90
2018-02-09T15:24:47.552Z,1.90
2018-02-09T15:27:15.167Z,1.80
2018-02-09T15:29:42.670Z,1.80
2018-02-09T15:32:10.188Z,1.80
2018-02-09T15:34:37.688Z,1.80
2018-02-09T15:37:05.471Z,1.80
2018-02-09T15:39:33.018Z,1.80
2018-02-09T15:42:00.809Z,1.80
2018-02-09T15:44:28.328Z,1.80
2018-02-09T15:46:55.835Z,1.70
2018-02-09T15:49:23.411Z,1.70
2018-02-09T15:51:50.920Z,1.60
2018-02-09T15:54:18.427Z,1.70
2018-02-09T15:56:45.937Z,1.80
2018-02-09T15:59:13.443Z,1.70
2018-02-09T16:01:41.034Z,1.70
2018-02-09T16:04:08.619Z,1.70
2018-02-09T16:06:36.302Z,1.60
2018-02-09T16:09:03.811Z,1.50
2018-02-09T16:11:31.316Z,1.40
2018-02-09T16:13:58.835Z,1.50
2018-02-09T16:16:26.342Z,1.50
2018-02-09T16:18:53.890Z,1.50
2018-02-09T16:21:21.396Z,1.40
2018-02-09T16:23:49.111Z,1.40
2018-02-09T16:26:16.615Z,1.20
2018-02-09T16:28:44.944Z,1.20
2018-02-09T16:31:12.456Z,1.20
2018-02-09T16:33:39.964Z,1.20
2018-02-09T16:36:07.623Z,1.20
2018-02-09T16:38:35.118Z,1.20
2018-02-09T16:41:02.643Z,1.20
2018-02-09T16:43:30.157Z,1.20
2018-02-09T16:45:58.178Z,1.10
2018-02-09T16:48:25.848Z,1.20
2018-02-09T16:50:53.484Z,1.20
2018-02-09T16:53:20.982Z,1.20
2018-02-09T16:55:48.720Z,1.20
2018-02-09T16:58:16.238Z,1.10
2018-02-09T17:00:43.752Z,1.20
2018-02-09T17:03:11.489Z,1.10
2018-02-09T17:05:39.255Z,1.10
2018-02-09T17:08:06.762Z,1.00
2018-02-09T17:10:34.479Z,0.90
2018-02-09T17:13:03.495Z,1.00
2018-02-09T17:15:31.227Z,0.90
2018-02-09T17:17:59.542Z,1.00
2018-02-09T17:20:27.045Z,1.00
2018-02-09T17:22:55.478Z,0.90
2018-02-09T17:25:22.997Z,0.90
2018-02-09T17:27:50.655Z,0.90
2018-02-09T17:30:18.419Z,0.80
2018-02-09T17:32:46.187Z,0.80
2018-02-09T17:35:13.703Z,0.90
2018-02-09T17:37:41.383Z,0.80
2018-02-09T17:40:08.891Z,0.80
2018-02-09T17:42:36.635Z,0.90
2018-02-09T17:45:04.158Z,0.80
2018-02-09T17:47:31.864Z,0.80
2018-02-09T17:49:59.368Z,0.70
2018-02-09T17:52:27.067Z,0.70
2018-02-09T17:54:54.603Z,0.70
2018-02-09T17:57:22.115Z,0.70
2018-02-09T17:59:50.491Z,0.70
2018-02-09T18:02:19.040Z,0.70
2018-02-09T18:04:46.576Z,0.70
2018-02-09T18:07:14.262Z,0.70
2018-02-09T18:09:41.765Z,0.70
2018-02-09T18:12:09.279Z,0.70
2018-02-09T18:14:36.912Z,0.70
2018-02-09T18:17:04.415Z,0.60
2018-02-09T18:19:31.932Z,0.60
2018-02-09T18:21:59.446Z,0.60
2018-02-09T18:24:27.988Z,0.50
2018-02-09T18:26:55.494Z,0.60
2018-02-09T18:29:23.185Z,0.50
2018-02-09T18:31:50.688Z,0.50
2018-02-09T18:34:18.432Z,0.40
2018-02-09T18:36:46.205Z,0.40
2018-02-09T18:39:13.723Z,0.30
2018-02-09T18:41:42.311Z,0.40
2018-02-09T18:44:09.823Z,0.30
2018-02-09T18:46:37.323Z,0.30
2018-02-09T18:49:05.039Z,0.30
2018-02-09T18:51:32.548Z,0.30
2018-02-09T18:54:00.208Z,0.20
2018-02-09T18:56:27.996Z,0.20
2018-02-09T18:58:55.514Z,0.20
2018-02-09T19:01:23.214Z,0.20
2018-02-09T19:03:50.984Z,0.10
2018-02-09T19:06:18.755Z,0.10
2018-02-09T19:08:46.507Z,0.10
2018-02-09T19:11:14.266Z,0.10
2018-02-09T19:13:41.845Z,0.20
2018-02-09T19:16:09.482Z,0.10
2018-02-09T19:18:37.007Z,0.10
2018-02-09T19:21:04.619Z,0.00
2018-02-09T19:23:32.139Z,-0.10
2018-02-09T19:25:59.662Z,-0.10
2018-02-09T19:28:27.159Z,0.00
2018-02-09T19:30:54.814Z,0.00
2018-02-09T19:33:22.822Z,0.00
2018-02-09T19:35:50.337Z,0.00
2018-02-09T19:38:17.848Z,0.00
2018-02-09T19:40:45.356Z,-0.10
2018-02-09T19:43:12.861Z,0.00
2018-02-09T19:45:40.478Z,0.00
2018-02-09T19:48:08.267Z,0.00
2018-02-09T19:50:35.792Z,0.00
2018-02-09T19:53:03.486Z,0.00
2018-02-09T19:55:31.012Z,-0.10
2018-02-09T19:57:59.098Z,-0.20
2018-02-09T20:00:26.602Z,-0.10
2018-02-09T20:02:54.268Z,-0.20
2018-02-09T20:05:22.003Z,-0.20
2018-02-09T20:07:49.552Z,-0.10
2018-02-09T20:10:17.100Z,-0.10
2018-02-09T20:12:44.853Z,-0.10
2018-02-09T20:15:12.353Z,-0.10
2018-02-09T20:17:39.904Z,-0.10
2018-02-09T20:20:07.463Z,-0.20
2018-02-09T20:22:35.128Z,-0.10
2018-02-09T20:25:02.930Z,-0.10
2018-02-09T20:27:30.435Z,-0.10
2018-02-09T20:29:58.172Z,-0.20
2018-02-09T20:32:25.879Z,-0.20
2018-02-09T20:34:54.903Z,-0.30
2018-02-09T20:37:22.630Z,-0.30
2018-02-09T20:39:50.395Z,-0.20
2018-02-09T20:42:17.915Z,-0.20
2018-02-09T20:44:45.616Z,-0.30
2018-02-09T20:47:13.472Z,-0.30
2018-02-09T20:49:41.126Z,-0.30
2018-02-09T20:52:08.719Z,-0.30
2018-02-09T20:54:37.011Z,-0.20
2018-02-09T20:57:04.732Z,-0.20
2018-02-09T20:59:32.490Z,-0.20
2018-02-09T21:02:00.026Z,-0.30
2018-02-09T21:04:27.531Z,-0.30
2018-02-09T21:06:55.295Z,-0.30
2018-02-09T21:09:22.815Z,-0.40
2018-02-09T21:11:50.435Z,-0.40
2018-02-09T21:14:19.095Z,-0.40
2018-02-09T21:16:46.866Z,-0.40
2018-02-09T21:19:14.581Z,-0.40
2018-02-09T21:21:42.098Z,-0.40
2018-02-09T21:24:09.635Z,-0.40
2018-02-09T21:26:37.146Z,-0.40
2018-02-09T21:29:04.751Z,-0.40
2018-02-09T21:31:32.272Z,-0.40
2018-02-09T21:33:59.794Z,-0.40
2018-02-09T21:36:28.063Z,-0.50
2018-02-09T21:38:55.589Z,-0.50
2018-02-09T21:41:23.097Z,-0.50
2018-02-09T21:43:50.698Z,-0.60
2018-02-09T21:46:18.218Z,-0.70
2018-02-09T21:48:45.751Z,-0.60
2018-02-09T21:51:14.053Z,-0.60
2018-02-09T21:53:41.803Z,-0.60
2018-02-09T21:56:09.284Z,-0.60
2018-02-09T21:58:36.978Z,-0.60
2018-02-09T22:01:04.499Z,-0.60
2018-02-09T22:03:32.072Z,-0.60
2018-02-09T22:05:59.674Z,-0.60
2018-02-09T22:08:27.191Z,-0.60
2018-02-09T22:10:54.880Z,-0.60
2018-02-09T22:13:23.139Z,-0.60
2018-02-09T22:15:50.685Z,-0.60
2018-02-09T22:18:18.201Z,-0.60
2018-02-09T22:20:46.099Z,-0.60
2018-02-09T22:23:13.658Z,-0.60
2018-02-09T22:25:41.181Z,-0.60
2018-02-09T22:28:08.902Z,-0.70
2018-02-09T22:30:36.960Z,-0.70
2018-02-09T22:33:04.482Z,-0.70
2018-02-09T22:35:32.003Z,-0.70
2018-02-09T22:37:59.562Z,-0.70
2018-02-09T22:40:27.083Z,-0.70
2018-02-09T22:42:54.591Z,-0.70
2018-02-09T22:45:22.112Z,-0.70
2018-02-09T22:47:49.747Z,-0.80
2018-02-09T22:50:17.271Z,-0.70
2018-02-09T22:52:44.788Z,-0.70
2018-02-09T22:55:12.437Z,-0.80
2018-02-09T22:57:39.948Z,-0.80
2018-02-09T23:00:07.487Z,-0.70
2018-02-09T23:02:35.141Z,-0.90
2018-02-09T23:05:02.894Z,-0.90
2018-02-09T23:07:30.663Z,-0.90
2018-02-09T23:09:58.197Z,-0.90
2018-02-09T23:12:25.892Z,-0.70
2018-02-09T23:14:57.318Z,-0.30
2018-02-09T23:17:24.813Z,-0.10
2018-02-09T23:19:53.831Z,-0.60
2018-02-09T23:22:21.357Z,-0.60
2018-02-09T23:24:48.979Z,-0.60
2018-02-09T23:27:16.500Z,-0.70
2018-02-09T23:29:44.252Z,-0.80
2018-02-09T23:32:13.536Z,-0.90
2018-02-09T23:34:41.290Z,-0.90
2018-02-09T23:37:09.067Z,-0.90
2018-02-09T23:39:38.357Z,-0.60
2018-02-09T23:42:05.893Z,-0.50
2018-02-09T23:44:33.575Z,-0.30
2018-02-09T23:47:01.091Z,-0.10
2018-02-09T23:49:28.761Z,-0.40
2018-02-09T23:51:56.271Z,-0.40
2018-02-09T23:54:24.013Z,-0.50
2018-02-09T23:56:51.823Z,-0.30
2018-02-09T23:59:19.355Z,-0.10
